Time;durP1;ratioP1;P1;durP2;ratioP2;P2;SDS_P1;SDS_P2;PMS_P1;PMS_P2;Temp;Humidity;BMP_temperature;BMP_pressure;BME280_temperature;BME280_humidity;BME280_pressure;Samples;Min_cycle;Max_cycle;Signal;HPM_P1;HPM_P2
2022/03/13 00:00:07;;;;;;;12.77;11.47;;;;;;;4.52;83.72;100221.25;4985917;28;20180;-55
2022/03/13 00:02:32;;;;;;;14.50;11.37;;;;;;;4.43;83.87;100213.44;4979661;28;20209;-56
2022/03/13 00:04:57;;;;;;;13.27;11.93;;;;;;;4.36;84.18;100211.59;4985024;28;20182;-55
2022/03/13 00:07:28;;;;;;;14.00;11.53;;;;;;;4.26;84.20;100218.28;4986533;28;20189;-55
2022/03/13 00:09:53;;;;;;;12.00;10.80;;;;;;;4.15;84.40;100212.13;4986821;28;20189;-55
2022/03/13 00:12:27;;;;;;;11.63;10.30;;;;;;;4.03;84.45;100218.78;4986681;28;20574;-56
2022/03/13 00:14:56;;;;;;;11.63;10.43;;;;;;;4.00;84.61;100210.19;4987143;28;20497;-54
2022/03/13 00:17:28;;;;;;;12.33;11.03;;;;;;;3.94;84.93;100213.47;4987176;28;20636;-55
2022/03/13 00:20:02;;;;;;;12.80;11.10;;;;;;;3.90;85.24;100211.72;4985940;28;20218;-55
2022/03/13 00:22:29;;;;;;;11.77;10.03;;;;;;;3.84;85.04;100216.72;4983845;28;20188;-55
2022/03/13 00:24:56;;;;;;;13.80;11.90;;;;;;;3.78;85.20;100210.66;4988803;28;20941;-54
2022/03/13 00:27:21;;;;;;;12.43;11.13;;;;;;;3.71;85.30;100213.97;4991236;28;20275;-56
2022/03/13 00:29:47;;;;;;;11.83;10.50;;;;;;;3.64;85.61;100215.56;4994422;28;20410;-54
2022/03/13 00:32:12;;;;;;;12.50;11.20;;;;;;;3.58;85.84;100219.69;5001526;28;20189;-54
2022/03/13 00:34:38;;;;;;;11.73;10.30;;;;;;;3.54;85.86;100220.47;4992267;28;20210;-54
2022/03/13 00:37:04;;;;;;;12.23;10.93;;;;;;;3.50;86.31;100228.09;5000920;28;20200;-55
2022/03/13 00:39:29;;;;;;;11.97;10.73;;;;;;;3.43;86.46;100223.69;4992539;28;20681;-56
2022/03/13 00:41:54;;;;;;;13.47;11.87;;;;;;;3.41;86.36;100227.03;4996894;28;20260;-56
2022/03/13 00:44:20;;;;;;;13.00;11.70;;;;;;;3.37;86.58;100235.50;4991655;28;20237;-56
2022/03/13 00:46:45;;;;;;;12.33;11.03;;;;;;;3.34;87.16;100231.16;4988876;28;20544;-56
2022/03/13 00:49:11;;;;;;;14.30;12.80;;;;;;;3.29;87.26;100220.84;4988452;28;20558;-55
2022/03/13 00:51:37;;;;;;;16.23;13.83;;;;;;;3.23;87.38;100219.88;4988372;28;20189;-54
2022/03/13 00:54:04;;;;;;;13.53;12.13;;;;;;;3.15;87.19;100218.03;4988248;28;20209;-55
2022/03/13 00:56:30;;;;;;;13.83;12.43;;;;;;;3.09;87.39;100223.03;4991506;28;20254;-54
2022/03/13 00:58:55;;;;;;;13.97;12.57;;;;;;;3.02;87.90;100229.69;4990094;28;20666;-54
2022/03/13 01:01:20;;;;;;;13.13;11.80;;;;;;;2.96;87.82;100233.81;4988424;28;20189;-58
2022/03/13 01:03:47;;;;;;;12.13;10.93;;;;;;;2.91;87.96;100231.19;4990138;28;20243;-53
2022/03/13 01:06:13;;;;;;;13.47;12.07;;;;;;;2.85;88.09;100223.38;4988740;28;20185;-56
2022/03/13 01:08:40;;;;;;;12.43;11.17;;;;;;;2.80;88.41;100230.94;4986174;28;20547;-56
2022/03/13 01:11:06;;;;;;;13.43;11.30;;;;;;;2.76;88.43;100231.69;4989278;28;20704;-56
2022/03/13 01:13:31;;;;;;;12.70;11.23;;;;;;;2.73;88.52;100229.06;4981828;28;20217;-55
2022/03/13 01:16:17;;;;;;;13.37;12.03;;;;;;;2.69;88.68;100230.69;4991668;28;20240;-55
2022/03/13 01:18:49;;;;;;;12.97;11.43;;;;;;;2.68;89.15;100235.78;4988022;28;20189;-55
2022/03/13 01:21:15;;;;;;;13.27;11.87;;;;;;;2.64;89.12;100233.97;4990319;28;20207;-55
2022/03/13 01:23:42;;;;;;;13.27;11.87;;;;;;;2.61;89.27;100237.34;4989657;28;20472;-55
2022/03/13 01:26:22;;;;;;;14.47;12.87;;;;;;;2.56;89.37;100232.13;4995707;28;20613;-56
2022/03/13 01:28:50;;;;;;;13.00;11.67;;;;;;;2.55;89.76;100232.97;4989540;28;20254;-54
2022/03/13 01:31:16;;;;;;;13.03;11.73;;;;;;;2.51;90.01;100237.94;4985291;28;20189;-55
2022/03/13 01:33:41;;;;;;;13.00;11.60;;;;;;;2.48;89.90;100245.56;4987009;28;20220;-55
2022/03/13 01:36:07;;;;;;;13.77;12.17;;;;;;;2.45;90.07;100236.09;4988180;28;20324;-55
2022/03/13 01:38:33;;;;;;;12.67;11.30;;;;;;;2.40;90.24;100233.44;4986596;28;20227;-55
2022/03/13 01:40:59;;;;;;;14.30;12.40;;;;;;;2.37;90.33;100229.97;4989535;28;20201;-54
2022/03/13 01:43:25;;;;;;;14.27;12.47;;;;;;;2.33;90.40;100223.94;4992429;28;20764;-56
2022/03/13 01:45:52;;;;;;;15.43;12.93;;;;;;;2.31;90.44;100225.59;4991989;28;20204;-56
2022/03/13 01:48:17;;;;;;;13.77;12.37;;;;;;;2.31;90.48;100237.47;4990865;28;20219;-55
2022/03/13 01:50:43;;;;;;;15.33;13.70;;;;;;;2.28;90.64;100228.91;4990465;28;20224;-55
2022/03/13 01:53:08;;;;;;;14.20;12.70;;;;;;;2.26;90.60;100228.03;4985379;28;20259;-54
2022/03/13 01:55:34;;;;;;;14.10;12.50;;;;;;;2.27;90.76;100229.72;4988730;28;20200;-54
2022/03/13 01:57:59;;;;;;;14.30;12.80;;;;;;;2.28;90.73;100233.16;4983616;28;20216;-54
2022/03/13 02:00:25;;;;;;;14.73;13.10;;;;;;;2.27;90.66;100227.19;4989124;28;20185;-56
2022/03/13 02:02:51;;;;;;;14.43;12.90;;;;;;;2.26;90.74;100227.16;4987381;28;20259;-55
2022/03/13 02:05:27;;;;;;;15.93;13.07;;;;;;;2.26;90.70;100227.16;4985275;28;20181;-54
2022/03/13 02:07:53;;;;;;;14.10;12.63;;;;;;;2.23;90.87;100220.28;4986492;28;20695;-56
2022/03/13 02:10:18;;;;;;;14.53;13.00;;;;;;;2.21;91.04;100226.16;4988020;28;20197;-54
2022/03/13 02:12:43;;;;;;;14.33;12.73;;;;;;;2.18;91.38;100226.13;4985811;28;20244;-56
2022/03/13 02:15:09;;;;;;;14.67;12.97;;;;;;;2.15;91.28;100231.16;4986378;28;20544;-56
2022/03/13 02:17:34;;;;;;;13.63;12.27;;;;;;;2.13;91.57;100231.09;4987919;28;20582;-54
2022/03/13 02:20:01;;;;;;;14.33;12.83;;;;;;;2.11;91.63;100231.06;4989811;28;20557;-55
2022/03/13 02:22:27;;;;;;;13.80;12.30;;;;;;;2.08;92.06;100228.44;4984258;28;20189;-55
2022/03/13 02:24:52;;;;;;;13.27;11.47;;;;;;;2.05;92.15;100230.91;4987986;28;20192;-55
2022/03/13 02:27:23;;;;;;;14.20;12.80;;;;;;;2.03;92.29;100231.69;4988962;28;20543;-56
2022/03/13 02:29:50;;;;;;;13.03;11.63;;;;;;;1.97;92.26;100234.97;4989296;28;20235;-55
2022/03/13 02:32:17;;;;;;;13.57;12.03;;;;;;;1.91;92.51;100225.47;5006262;28;20391;-55
2022/03/13 02:34:43;;;;;;;13.93;11.60;;;;;;;1.89;92.86;100231.38;4999914;28;20259;-54
2022/03/13 02:37:19;;;;;;;14.03;12.53;;;;;;;1.86;92.82;100229.59;4997762;28;20248;-54
2022/03/13 02:39:44;;;;;;;14.00;12.53;;;;;;;1.82;92.88;100231.19;4995642;28;20749;-54
2022/03/13 02:42:09;;;;;;;13.73;12.33;;;;;;;1.80;93.15;100226.91;4994949;28;20572;-55
2022/03/13 02:44:36;;;;;;;13.17;11.77;;;;;;;1.76;93.16;100223.38;4990529;28;20536;-55
2022/03/13 02:47:04;;;;;;;14.30;12.40;;;;;;;1.74;93.28;100231.81;4995473;28;20177;-55
2022/03/13 02:49:31;;;;;;;14.17;12.37;;;;;;;1.71;93.26;100230.06;5000300;28;20212;-55
2022/03/13 02:51:59;;;;;;;14.50;12.43;;;;;;;1.70;93.36;100218.13;4989631;28;20192;-54
2022/03/13 02:54:24;;;;;;;14.87;12.80;;;;;;;1.65;93.62;100217.13;4991564;28;20216;-55
2022/03/13 02:56:51;;;;;;;14.40;12.90;;;;;;;1.60;93.84;100221.25;4986321;28;20685;-53
2022/03/13 02:59:17;;;;;;;16.03;12.97;;;;;;;1.56;93.81;100212.66;4986281;28;20196;-54
2022/03/13 03:01:42;;;;;;;14.53;12.87;;;;;;;1.57;94.19;100214.38;4985341;28;20189;-54
2022/03/13 03:04:08;;;;;;;15.03;13.20;;;;;;;1.58;94.69;100197.41;4987906;28;20274;-54
2022/03/13 03:06:35;;;;;;;15.00;13.37;;;;;;;1.61;95.04;100210.22;4984302;28;20281;-54
2022/03/13 03:09:03;;;;;;;16.57;14.47;;;;;;;1.61;95.17;100200.00;4985062;28;20182;-57
2022/03/13 03:11:32;;;;;;;15.37;13.77;;;;;;;1.62;95.37;100199.19;4984524;28;20264;-54
2022/03/13 03:14:00;;;;;;;15.37;13.67;;;;;;;1.62;95.54;100199.19;4984650;28;20291;-56
2022/03/13 03:16:25;;;;;;;14.17;12.70;;;;;;;1.59;95.71;100205.09;4986921;28;20227;-55
2022/03/13 03:18:50;;;;;;;14.13;12.73;;;;;;;1.55;95.66;100205.81;4986578;28;20193;-54
2022/03/13 03:21:16;;;;;;;15.87;13.87;;;;;;;1.50;95.82;100208.25;4987386;28;20267;-54
2022/03/13 03:23:41;;;;;;;14.77;13.30;;;;;;;1.45;95.85;100216.63;4987096;28;20221;-56
2022/03/13 03:26:07;;;;;;;15.60;13.87;;;;;;;1.37;95.70;100221.50;4987338;28;21702;-55
2022/03/13 03:28:34;;;;;;;15.77;13.40;;;;;;;1.28;95.56;100221.25;4983721;28;20203;-56
2022/03/13 03:31:00;;;;;;;15.00;13.47;;;;;;;1.18;95.68;100213.34;4987921;28;20275;-55
2022/03/13 03:33:25;;;;;;;16.20;13.83;;;;;;;1.10;95.45;100219.03;4986044;28;20300;-54
2022/03/13 03:35:50;;;;;;;17.77;14.87;;;;;;;1.02;95.70;100213.72;4987892;28;20189;-55
2022/03/13 03:38:16;;;;;;;16.40;13.93;;;;;;;1.01;96.05;100212.88;4986155;28;20732;-54
2022/03/13 03:40:41;;;;;;;16.17;14.47;;;;;;;1.03;96.45;100218.88;4986241;28;20390;-54
2022/03/13 03:43:07;;;;;;;17.70;14.90;;;;;;;1.07;97.12;100222.38;4988039;28;20204;-54
2022/03/13 03:45:32;;;;;;;16.57;14.87;;;;;;;1.08;97.52;100219.00;4984666;28;20193;-55
2022/03/13 03:47:58;;;;;;;15.97;14.17;;;;;;;1.10;97.93;100221.59;4986788;28;20195;-55
2022/03/13 03:50:24;;;;;;;15.57;13.67;;;;;;;1.11;98.32;100226.75;4984200;28;20580;-54
2022/03/13 03:52:55;;;;;;;15.67;14.07;;;;;;;1.12;98.49;100230.16;4991915;28;20201;-54
2022/03/13 03:55:21;;;;;;;16.53;14.73;;;;;;;1.07;98.54;100224.91;4990099;28;20196;-54
2022/03/13 03:57:47;;;;;;;15.87;14.07;;;;;;;1.02;98.25;100222.25;4983872;28;20205;-55
2022/03/13 04:00:13;;;;;;;17.23;13.80;;;;;;;0.96;98.03;100214.41;4989317;28;20565;-54
2022/03/13 04:02:39;;;;;;;17.87;14.97;;;;;;;0.88;97.76;100213.34;4982166;28;20232;-55
2022/03/13 04:05:05;;;;;;;15.73;14.13;;;;;;;0.80;97.46;100224.97;4984060;28;20621;-54
2022/03/13 04:07:31;;;;;;;17.60;15.33;;;;;;;0.74;97.49;100224.00;4985543;28;20726;-55
2022/03/13 04:09:57;;;;;;;16.57;14.87;;;;;;;0.69;97.50;100222.09;4986314;28;20193;-55
2022/03/13 04:12:25;;;;;;;16.57;14.77;;;;;;;0.66;97.33;100222.03;4983917;28;20192;-56
2022/03/13 04:14:51;;;;;;;17.03;15.23;;;;;;;0.64;97.39;100221.97;4984695;28;20278;-54
2022/03/13 04:17:17;;;;;;;15.40;13.80;;;;;;;0.60;97.40;100221.00;4985243;28;20536;-55
2022/03/13 04:19:42;;;;;;;17.03;15.23;;;;;;;0.59;97.53;100224.38;4984114;28;20228;-55
2022/03/13 04:22:07;;;;;;;16.20;13.83;;;;;;;0.58;97.62;100221.78;4986738;28;20641;-55
2022/03/13 04:24:36;;;;;;;16.40;14.67;;;;;;;0.56;97.44;100231.06;4986068;28;20248;-55
2022/03/13 04:27:02;;;;;;;16.27;14.50;;;;;;;0.54;97.51;100231.00;4996790;28;20187;-55
2022/03/13 04:29:27;;;;;;;16.90;15.13;;;;;;;0.53;97.46;100238.59;4983260;28;20181;-54
2022/03/13 04:31:54;;;;;;;17.37;15.30;;;;;;;0.49;97.42;100231.69;4987268;28;20185;-55
2022/03/13 04:34:20;;;;;;;16.97;14.53;;;;;;;0.46;97.38;100242.66;4999908;28;20290;-55
2022/03/13 04:36:46;;;;;;;15.70;14.03;;;;;;;0.42;97.33;100241.69;4989567;28;20344;-53
2022/03/13 04:39:12;;;;;;;15.57;13.97;;;;;;;0.39;97.47;100240.72;4989100;28;20207;-54
2022/03/13 04:41:38;;;;;;;14.80;13.20;;;;;;;0.37;97.48;100242.38;4988841;28;20617;-53
2022/03/13 04:44:04;;;;;;;15.83;13.43;;;;;;;0.33;97.28;100233.75;4994348;28;20202;-57
2022/03/13 04:46:30;;;;;;;15.80;14.10;;;;;;;0.30;97.50;100236.22;5001137;28;20192;-55
2022/03/13 04:48:57;;;;;;;15.27;13.43;;;;;;;0.28;97.58;100241.25;4987112;28;20611;-54
2022/03/13 04:51:22;;;;;;;15.50;13.83;;;;;;;0.27;97.46;100241.19;4983666;28;20191;-56
2022/03/13 04:53:47;;;;;;;16.10;14.37;;;;;;;0.26;97.58;100249.66;4989739;28;20215;-56
2022/03/13 04:56:13;;;;;;;15.07;13.47;;;;;;;0.26;97.71;100249.66;4987347;28;20656;-54
2022/03/13 04:58:39;;;;;;;15.87;14.17;;;;;;;0.27;97.82;100249.69;4982439;28;20199;-55
2022/03/13 05:01:04;;;;;;;15.63;13.93;;;;;;;0.29;98.08;100245.50;4984759;28;20544;-55
2022/03/13 05:03:33;;;;;;;16.80;14.53;;;;;;;0.28;98.02;100251.41;4985213;28;21855;-55
2022/03/13 05:05:59;;;;;;;16.47;14.77;;;;;;;0.28;98.40;100253.13;4989354;28;20182;-55
2022/03/13 05:08:26;;;;;;;16.33;14.63;;;;;;;0.29;98.41;100254.84;4984353;28;20197;-55
2022/03/13 05:10:52;;;;;;;16.07;14.30;;;;;;;0.29;98.68;100265.03;4986537;28;20189;-55
2022/03/13 05:13:18;;;;;;;17.17;14.60;;;;;;;0.35;99.08;100264.34;4985122;28;20563;-55
2022/03/13 05:15:45;;;;;;;17.57;15.07;;;;;;;0.39;99.72;100261.06;4987174;28;20585;-56
2022/03/13 05:18:12;;;;;;;16.77;14.67;;;;;;;0.40;99.91;100265.34;4988051;28;20731;-54
2022/03/13 05:20:38;;;;;;;15.60;14.00;;;;;;;0.42;100.00;100273.91;4990780;28;20279;-54
2022/03/13 05:23:05;;;;;;;16.77;14.43;;;;;;;0.39;99.98;100266.16;4991396;28;20228;-56
2022/03/13 05:25:34;;;;;;;17.20;14.50;;;;;;;0.35;99.79;100275.41;4990388;28;20764;-55
2022/03/13 05:28:01;;;;;;;17.40;14.40;;;;;;;0.32;99.91;100275.28;4994272;28;20192;-55
2022/03/13 05:30:27;;;;;;;16.77;14.97;;;;;;;0.27;99.66;100272.59;4991742;28;20228;-54
2022/03/13 05:32:52;;;;;;;16.97;14.60;;;;;;;0.22;99.69;100261.44;4990512;28;20218;-55
2022/03/13 05:35:19;;;;;;;16.70;14.90;;;;;;;0.17;99.51;100275.66;4994885;28;20567;-53
2022/03/13 05:37:45;;;;;;;15.70;14.00;;;;;;;0.14;99.30;100283.19;4991853;28;20202;-54
2022/03/13 05:40:15;;;;;;;16.73;14.03;;;;;;;0.11;99.25;100275.44;5001807;28;20271;-54
2022/03/13 05:42:46;;;;;;;16.30;14.07;;;;;;;0.10;99.09;100283.91;4993650;28;20576;-54
2022/03/13 05:45:15;;;;;;;15.80;13.93;;;;;;;0.11;98.96;100296.69;4995322;28;20247;-53
2022/03/13 05:47:51;;;;;;;16.67;14.47;;;;;;;0.09;98.85;100300.84;4997627;28;20312;-54
2022/03/13 05:50:18;;;;;;;16.63;14.17;;;;;;;0.09;98.76;100292.34;4999821;28;20187;-55
2022/03/13 05:52:46;;;;;;;16.87;14.63;;;;;;;0.09;98.57;100303.41;5002781;28;20205;-54
2022/03/13 05:55:12;;;;;;;15.23;13.60;;;;;;;0.10;98.31;100304.25;4987194;28;20745;-54
2022/03/13 05:57:37;;;;;;;15.83;14.13;;;;;;;0.12;98.45;100310.25;4986397;28;20212;-55
2022/03/13 06:00:08;;;;;;;18.57;15.07;;;;;;;0.16;98.39;100309.56;4987796;28;20543;-53
2022/03/13 06:02:40;;;;;;;15.93;14.23;;;;;;;0.22;98.28;100314.88;4988943;28;20888;-53
2022/03/13 06:05:07;;;;;;;16.20;14.50;;;;;;;0.29;98.04;100316.78;4986443;28;20186;-55
2022/03/13 06:07:32;;;;;;;16.17;13.90;;;;;;;0.36;97.89;100324.66;4987215;28;20189;-54
2022/03/13 06:10:02;;;;;;;16.07;14.00;;;;;;;0.48;97.88;100321.63;4991747;28;20201;-53
2022/03/13 06:12:30;;;;;;;18.13;14.67;;;;;;;0.68;97.38;100328.22;4993811;28;20229;-56
2022/03/13 06:14:55;;;;;;;17.33;15.20;;;;;;;0.88;96.76;100325.44;4987272;28;20731;-55
2022/03/13 06:17:20;;;;;;;17.30;15.30;;;;;;;1.07;96.00;100329.41;4987746;28;20211;-55
2022/03/13 06:19:46;;;;;;;17.43;15.60;;;;;;;1.23;95.39;100330.72;4987177;28;20654;-55
2022/03/13 06:22:12;;;;;;;17.37;14.27;;;;;;;1.33;94.92;100331.88;4989724;28;20533;-55
2022/03/13 06:24:38;;;;;;;18.10;15.80;;;;;;;1.38;94.71;100330.34;4980210;28;20727;-54
2022/03/13 06:27:05;;;;;;;18.03;16.07;;;;;;;1.52;94.40;100326.50;4997989;28;20204;-54
2022/03/13 06:29:31;;;;;;;17.80;15.30;;;;;;;1.66;94.67;100331.13;4991510;28;20600;-54
2022/03/13 06:31:58;;;;;;;20.33;15.27;;;;;;;1.76;94.51;100329.69;4994863;28;20191;-54
2022/03/13 06:34:23;;;;;;;18.27;15.00;;;;;;;1.84;94.72;100325.66;4993699;28;20263;-53
2022/03/13 06:36:49;;;;;;;17.70;15.87;;;;;;;1.96;94.60;100325.13;4990341;28;20202;-55
2022/03/13 06:39:16;;;;;;;18.80;15.40;;;;;;;2.07;94.28;100325.41;4988127;28;20743;-53
2022/03/13 06:41:42;;;;;;;17.83;14.90;;;;;;;2.27;93.83;100331.88;4996968;28;20204;-53
2022/03/13 06:44:08;;;;;;;16.63;14.73;;;;;;;2.51;93.15;100343.56;4995742;28;20221;-54
2022/03/13 06:46:34;;;;;;;17.43;14.73;;;;;;;2.72;92.75;100334.69;4997498;28;20185;-53
2022/03/13 06:49:02;;;;;;;16.93;14.90;;;;;;;2.92;92.14;100339.38;5001165;28;20201;-56
2022/03/13 06:51:28;;;;;;;17.17;14.37;;;;;;;3.08;91.75;100335.50;5003052;28;20192;-55
2022/03/13 06:53:53;;;;;;;16.00;14.07;;;;;;;3.16;91.55;100329.72;4990027;28;20221;-55
2022/03/13 06:56:19;;;;;;;17.93;15.57;;;;;;;3.29;91.34;100330.84;4985295;28;20195;-55
2022/03/13 06:58:44;;;;;;;19.73;16.83;;;;;;;3.49;90.85;100336.38;4988046;28;20551;-54
2022/03/13 07:01:10;;;;;;;17.70;15.87;;;;;;;3.67;90.32;100337.59;4996963;28;20263;-56
2022/03/13 07:03:36;;;;;;;17.93;16.00;;;;;;;3.84;90.11;100340.50;4985523;28;20212;-55
2022/03/13 07:06:07;;;;;;;16.67;14.87;;;;;;;4.02;89.93;100334.84;4986326;28;20607;-55
2022/03/13 07:08:33;;;;;;;17.83;15.93;;;;;;;4.19;89.46;100330.03;4986454;28;20193;-54
2022/03/13 07:11:00;;;;;;;16.83;15.03;;;;;;;4.27;88.53;100328.47;4983363;28;20659;-55
2022/03/13 07:13:32;;;;;;;19.50;16.37;;;;;;;4.40;88.01;100323.56;4986955;28;20308;-54
2022/03/13 07:16:02;;;;;;;16.97;15.17;;;;;;;4.47;87.07;100314.28;4984761;28;20646;-54
2022/03/13 07:18:28;;;;;;;17.33;15.20;;;;;;;4.57;87.02;100316.13;4987156;28;20216;-57
2022/03/13 07:20:53;;;;;;;18.93;16.90;;;;;;;4.64;86.64;100315.41;4985100;28;20215;-56
2022/03/13 07:23:19;;;;;;;16.17;14.20;;;;;;;4.75;86.70;100314.72;4993110;28;20713;-54
2022/03/13 07:25:44;;;;;;;17.93;15.40;;;;;;;4.93;86.80;100309.84;4988102;28;20189;-53
2022/03/13 07:28:10;;;;;;;16.33;14.73;;;;;;;5.12;86.51;100310.97;4981417;28;20704;-56
2022/03/13 07:30:35;;;;;;;16.43;14.73;;;;;;;5.38;86.33;100304.47;4986275;28;20271;-55
2022/03/13 07:33:00;;;;;;;17.83;15.63;;;;;;;5.60;84.98;100298.72;4988544;28;20242;-54
2022/03/13 07:35:27;;;;;;;18.00;15.77;;;;;;;5.67;82.79;100294.56;4986480;28;20221;-54
2022/03/13 07:37:52;;;;;;;17.77;15.87;;;;;;;5.67;80.14;100293.69;4989828;28;20916;-56
2022/03/13 07:40:18;;;;;;;19.90;16.80;;;;;;;5.82;80.47;100300.69;4988874;28;20202;-53
2022/03/13 07:42:43;;;;;;;17.70;15.80;;;;;;;6.10;79.78;100313.00;4986273;28;20274;-56
2022/03/13 07:45:09;;;;;;;18.63;16.63;;;;;;;6.28;78.18;100305.44;4985910;28;20191;-56
2022/03/13 07:47:34;;;;;;;17.47;15.27;;;;;;;6.14;75.75;100297.59;4986126;28;20630;-55
2022/03/13 07:50:00;;;;;;;18.47;16.43;;;;;;;6.25;76.42;100299.44;4986339;28;20313;-54
2022/03/13 07:52:25;;;;;;;17.93;14.83;;;;;;;6.49;76.55;100290.22;4989165;28;20179;-55
2022/03/13 07:54:51;;;;;;;18.57;16.67;;;;;;;6.49;75.81;100297.94;4979482;28;20191;-55
2022/03/13 07:57:16;;;;;;;18.40;16.40;;;;;;;6.50;75.56;100293.63;4985764;28;20682;-55
2022/03/13 07:59:43;;;;;;;17.93;15.83;;;;;;;6.39;75.98;100297.00;4983124;28;20208;-54
2022/03/13 08:02:08;;;;;;;17.50;15.70;;;;;;;6.39;76.23;100303.81;4981419;28;20189;-55
2022/03/13 08:04:34;;;;;;;17.27;15.13;;;;;;;6.44;76.51;100301.28;4982632;28;20216;-55
2022/03/13 08:06:59;;;;;;;18.53;16.53;;;;;;;6.58;76.56;100294.53;4985117;28;20530;-54
2022/03/13 08:09:24;;;;;;;16.60;14.87;;;;;;;6.65;76.64;100298.06;4988709;28;20197;-54
2022/03/13 08:11:50;;;;;;;20.80;16.57;;;;;;;6.68;76.27;100288.63;4988168;28;20224;-57
2022/03/13 08:14:15;;;;;;;18.20;16.17;;;;;;;6.76;76.47;100292.97;4991505;28;20245;-57
2022/03/13 08:16:40;;;;;;;19.50;16.20;;;;;;;6.92;75.94;100293.94;4988884;28;20207;-55
2022/03/13 08:19:06;;;;;;;19.00;17.10;;;;;;;7.12;75.79;100279.44;4988420;28;20202;-55
2022/03/13 08:21:32;;;;;;;18.93;16.93;;;;;;;7.30;75.34;100281.28;4983384;28;20666;-54
2022/03/13 08:23:58;;;;;;;17.13;15.37;;;;;;;7.60;74.99;100292.53;4987845;28;20210;-55
2022/03/13 08:26:23;;;;;;;16.97;15.20;;;;;;;7.94;74.65;100295.19;4984616;28;20204;-56
2022/03/13 08:28:49;;;;;;;17.27;15.53;;;;;;;8.17;73.77;100278.91;4992033;28;20189;-56
2022/03/13 08:31:14;;;;;;;18.40;16.50;;;;;;;8.11;72.78;100272.88;4986442;28;20265;-56
2022/03/13 08:33:42;;;;;;;18.30;16.40;;;;;;;8.13;72.85;100278.91;4985766;28;20583;-55
2022/03/13 08:36:08;;;;;;;18.73;16.73;;;;;;;8.22;73.29;100286.63;4984567;28;20199;-56
2022/03/13 08:38:33;;;;;;;18.43;16.53;;;;;;;8.23;72.88;100288.34;4983385;28;20794;-56
2022/03/13 08:41:00;;;;;;;18.80;16.80;;;;;;;8.32;72.26;100284.94;4984351;28;20276;-56
2022/03/13 08:43:25;;;;;;;17.17;14.83;;;;;;;8.52;72.61;100291.00;4983719;28;20748;-57
2022/03/13 08:45:50;;;;;;;18.30;16.33;;;;;;;8.79;71.95;100278.91;4986163;28;20189;-55
2022/03/13 08:48:16;;;;;;;17.60;15.80;;;;;;;8.93;71.77;100280.59;4988228;28;20264;-55
2022/03/13 08:50:41;;;;;;;17.20;15.50;;;;;;;9.05;71.68;100277.97;4991713;28;20598;-55
2022/03/13 08:53:07;;;;;;;20.40;17.33;;;;;;;9.18;71.55;100277.94;4987610;28;20221;-54
2022/03/13 08:55:32;;;;;;;19.37;17.30;;;;;;;9.11;71.34;100274.53;4990625;28;20186;-55
2022/03/13 08:57:58;;;;;;;18.97;16.17;;;;;;;9.12;71.64;100266.78;4989431;28;20209;-54
2022/03/13 09:00:24;;;;;;;17.67;15.77;;;;;;;9.12;71.69;100263.34;5004495;28;20189;-54
2022/03/13 09:02:50;;;;;;;19.10;17.10;;;;;;;9.20;71.61;100268.47;4981332;28;20213;-55
2022/03/13 09:05:16;;;;;;;20.63;17.73;;;;;;;9.30;71.41;100267.59;4987780;28;20412;-55
2022/03/13 09:07:41;;;;;;;18.33;16.43;;;;;;;9.44;71.31;100276.13;4987794;28;20181;-54
2022/03/13 09:10:08;;;;;;;18.57;16.67;;;;;;;9.50;71.14;100267.50;4994213;28;20189;-53
2022/03/13 09:12:34;;;;;;;19.43;17.37;;;;;;;9.77;71.13;100275.97;4988190;28;20696;-56
2022/03/13 09:15:00;;;;;;;18.93;17.00;;;;;;;9.94;70.71;100267.25;4989710;28;20191;-54
2022/03/13 09:17:25;;;;;;;19.57;17.47;;;;;;;10.18;69.63;100269.63;4986664;28;20205;-56
2022/03/13 09:19:51;;;;;;;20.40;18.20;;;;;;;10.26;68.79;100267.00;4987470;28;20189;-56
2022/03/13 09:22:18;;;;;;;24.10;18.67;;;;;;;10.32;68.72;100274.72;4995589;28;20273;-56
2022/03/13 09:24:47;;;;;;;21.93;17.80;;;;;;;10.44;68.22;100272.94;4989108;28;20232;-55
2022/03/13 09:27:13;;;;;;;20.13;18.03;;;;;;;10.52;68.50;100278.88;4989584;28;20191;-55
2022/03/13 09:29:38;;;;;;;20.97;18.77;;;;;;;10.67;67.51;100276.16;4991462;28;20724;-54
2022/03/13 09:32:05;;;;;;;19.13;17.07;;;;;;;10.73;67.32;100272.66;4989567;28;20566;-54
2022/03/13 09:34:31;;;;;;;20.83;18.63;;;;;;;10.77;66.92;100270.91;4989903;28;20263;-55
2022/03/13 09:36:57;;;;;;;21.80;19.03;;;;;;;10.88;66.43;100273.38;4987380;28;20204;-54
2022/03/13 09:39:23;;;;;;;20.23;18.13;;;;;;;10.67;67.00;100265.78;4985870;28;20192;-55
2022/03/13 09:41:48;;;;;;;21.80;19.60;;;;;;;10.74;67.09;100263.16;4984173;28;20315;-54
2022/03/13 09:44:14;;;;;;;20.50;18.30;;;;;;;10.76;66.98;100257.09;4986099;28;20224;-54
2022/03/13 09:46:39;;;;;;;20.37;18.17;;;;;;;10.74;66.91;100270.94;4984226;28;20189;-54
2022/03/13 09:49:05;;;;;;;21.63;17.97;;;;;;;10.75;67.29;100265.72;4989104;28;20296;-54
2022/03/13 09:51:30;;;;;;;21.47;19.27;;;;;;;10.85;67.21;100268.22;4987015;28;20189;-54
2022/03/13 09:53:57;;;;;;;20.83;18.73;;;;;;;10.99;67.28;100276.72;4986513;28;20209;-54
2022/03/13 09:56:22;;;;;;;24.50;21.83;;;;;;;11.16;66.17;100267.91;4987230;28;20697;-56
2022/03/13 09:58:47;;;;;;;21.70;19.50;;;;;;;11.29;65.80;100267.72;4995175;28;20193;-59
2022/03/13 10:01:13;;;;;;;22.03;19.80;;;;;;;11.28;65.64;100267.75;4993442;28;20200;-54
2022/03/13 10:03:39;;;;;;;22.73;20.17;;;;;;;11.48;65.64;100256.28;4993061;28;20209;-54
2022/03/13 10:06:05;;;;;;;21.77;19.57;;;;;;;11.48;65.42;100251.09;4996363;28;20179;-55
2022/03/13 10:08:31;;;;;;;22.97;20.57;;;;;;;11.67;65.08;100247.34;4982117;28;20189;-54
2022/03/13 10:10:58;;;;;;;28.50;25.70;;;;;;;11.82;64.95;100242.81;4990354;28;20177;-55
2022/03/13 10:13:45;;;;;;;26.43;23.63;;;;;;;11.79;64.58;100235.97;4990392;28;20229;-55
2022/03/13 10:16:22;;;;;;;23.10;20.70;;;;;;;11.91;64.80;100237.53;4987857;28;20234;-55
2022/03/13 10:18:47;;;;;;;22.53;20.13;;;;;;;11.90;65.16;100230.63;4986381;28;20210;-55
2022/03/13 10:21:19;;;;;;;21.87;19.67;;;;;;;11.83;65.33;100232.44;4990124;28;20693;-55
2022/03/13 10:23:47;;;;;;;21.53;19.30;;;;;;;12.08;64.65;100229.50;4989178;28;20585;-55
2022/03/13 10:26:17;;;;;;;21.50;19.37;;;;;;;12.13;65.11;100230.28;4985557;28;20209;-55
2022/03/13 10:28:42;;;;;;;22.57;20.17;;;;;;;12.18;64.33;100227.59;4983055;28;20593;-55
2022/03/13 10:31:13;;;;;;;23.80;21.07;;;;;;;12.10;64.55;100217.34;4985087;28;20552;-54
2022/03/13 10:33:44;;;;;;;22.43;20.13;;;;;;;12.17;64.69;100216.38;4986535;28;20232;-55
2022/03/13 10:36:14;;;;;;;22.03;19.83;;;;;;;12.35;64.31;100209.16;4987625;28;20192;-54
2022/03/13 10:38:40;;;;;;;22.10;19.90;;;;;;;12.56;64.35;100210.50;4987755;28;20314;-55
2022/03/13 10:41:09;;;;;;;24.57;22.07;;;;;;;12.38;63.78;100211.69;4990152;28;20236;-55
2022/03/13 10:43:39;;;;;;;22.27;20.07;;;;;;;12.46;64.13;100208.97;4984303;28;20743;-55
2022/03/13 10:46:05;;;;;;;24.17;21.67;;;;;;;12.40;64.13;100207.34;4989645;28;20191;-55
2022/03/13 10:48:36;;;;;;;24.43;21.87;;;;;;;12.41;64.28;100201.25;4996494;28;20197;-55
2022/03/13 10:51:03;;;;;;;23.53;21.13;;;;;;;12.40;64.85;100204.75;4994788;28;20732;-55
2022/03/13 10:53:30;;;;;;;23.00;20.60;;;;;;;12.64;64.95;100200.84;4989477;28;20220;-55
2022/03/13 10:56:27;;;;;;;23.67;21.23;;;;;;;12.72;64.09;100197.22;4992521;28;20191;-55
2022/03/13 10:58:52;;;;;;;23.87;21.37;;;;;;;12.89;63.67;100196.91;4987936;28;20214;-55
2022/03/13 11:01:19;;;;;;;24.40;21.47;;;;;;;13.13;62.61;100190.38;4991879;28;20198;-54
2022/03/13 11:04:06;;;;;;;24.17;21.77;;;;;;;13.20;62.65;100191.09;4991346;28;20210;-54
2022/03/13 11:06:32;;;;;;;23.77;21.17;;;;;;;13.36;62.27;100189.00;4994752;28;20199;-55
2022/03/13 11:09:00;;;;;;;23.97;21.60;;;;;;;13.49;61.86;100184.41;4990924;28;20185;-55
2022/03/13 11:11:27;;;;;;;25.67;22.93;;;;;;;13.30;62.03;100184.78;4994260;28;20193;-55
2022/03/13 11:14:01;;;;;;;24.07;21.27;;;;;;;13.48;62.05;100174.91;4996793;28;20244;-55